Time;durP1;ratioP1;P1;durP2;ratioP2;P2;SDS_P1;SDS_P2;PMS_P1;PMS_P2;Temp;Humidity;BMP_temperature;BMP_pressure;BME280_temperature;BME280_humidity;BME280_pressure;Samples;Min_cycle;Max_cycle;Signal;HPM_P1;HPM_P2
2021/12/14 00:03:25;;;;;;;16.20;9.45;;;;;;;7.68;100.00;100934.28;8207660;28;20067;-83
2021/12/14 00:07:27;;;;;;;14.15;7.47;;;;;;;7.68;100.00;100941.69;8205831;28;20047;-83
2021/12/14 00:15:33;;;;;;;11.63;5.57;;;;;;;7.61;100.00;100941.63;8202199;28;20059;-82
2021/12/14 00:19:34;;;;;;;10.07;5.30;;;;;;;7.59;100.00;100938.25;8188885;28;20043;-83
2021/12/14 00:27:58;;;;;;;13.05;7.93;;;;;;;7.56;100.00;100943.31;8212016;28;20049;-83
2021/12/14 00:32:03;;;;;;;14.65;5.82;;;;;;;7.57;100.00;100940.34;8191833;28;20062;-83
2021/12/14 00:36:07;;;;;;;9.57;5.65;;;;;;;7.53;100.00;100934.41;8203095;28;20043;-82
2021/12/14 00:40:15;;;;;;;11.93;5.20;;;;;;;7.48;100.00;100936.91;8204919;28;20070;-83
2021/12/14 00:44:16;;;;;;;7.60;5.03;;;;;;;7.48;100.00;100944.28;8200698;28;20043;-82
2021/12/14 00:48:17;;;;;;;10.20;5.43;;;;;;;7.47;100.00;100937.13;8191732;28;20043;-83
2021/12/14 00:52:18;;;;;;;8.02;4.75;;;;;;;7.50;100.00;100933.97;8199660;28;20035;-82
2021/12/14 00:56:19;;;;;;;8.35;5.05;;;;;;;7.49;100.00;100927.63;8187497;28;20778;-83
2021/12/14 01:00:26;;;;;;;7.85;4.03;;;;;;;7.39;100.00;100920.84;8179008;28;20051;-83
2021/12/14 01:04:32;;;;;;;5.95;3.55;;;;;;;7.41;100.00;100921.50;8188765;28;20039;-83
2021/12/14 01:08:37;;;;;;;6.50;3.13;;;;;;;7.44;100.00;100924.66;8203019;28;20047;-83
2021/12/14 01:12:48;;;;;;;6.50;2.88;;;;;;;7.47;100.00;100927.00;8189543;28;20043;-83
2021/12/14 01:17:14;;;;;;;6.85;3.15;;;;;;;7.48;100.00;100936.06;8202983;28;20106;-83
2021/12/14 01:25:37;;;;;;;9.70;5.80;;;;;;;7.40;100.00;100952.69;8184760;28;20066;-83
2021/12/14 01:29:39;;;;;;;16.00;8.83;;;;;;;7.32;100.00;100945.47;8190811;28;20042;-83
2021/12/14 01:33:43;;;;;;;9.50;5.60;;;;;;;7.25;100.00;100948.16;8178185;28;20067;-83
2021/12/14 01:37:59;;;;;;;15.27;8.02;;;;;;;7.30;100.00;100951.16;8177291;28;20054;-83
2021/12/14 01:42:07;;;;;;;11.50;6.43;;;;;;;7.30;100.00;100950.31;8178637;28;20035;-82
2021/12/14 01:46:25;;;;;;;9.70;5.40;;;;;;;7.32;100.00;100950.97;8195840;28;20501;-84
2021/12/14 01:50:37;;;;;;;12.38;6.68;;;;;;;7.33;100.00;100957.28;8199393;28;20035;-83
2021/12/14 01:55:13;;;;;;;14.27;8.20;;;;;;;7.35;100.00;100963.38;8208990;28;20054;-83
2021/12/14 01:59:22;;;;;;;14.68;8.15;;;;;;;7.36;100.00;100963.22;8206668;28;20047;-83
2021/12/14 02:03:51;;;;;;;15.60;7.78;;;;;;;7.39;100.00;100965.53;8188655;28;20043;-83
2021/12/14 02:07:53;;;;;;;13.20;8.13;;;;;;;7.41;100.00;100965.38;8190673;28;20107;-83
2021/12/14 02:11:56;;;;;;;14.40;7.90;;;;;;;7.42;100.00;100959.66;8197753;28;20043;-83
2021/12/14 02:15:58;;;;;;;13.68;8.07;;;;;;;7.42;100.00;100954.19;8194460;28;20047;-84
2021/12/14 02:20:03;;;;;;;16.50;8.98;;;;;;;7.43;100.00;100949.53;8192911;28;20031;-83
2021/12/14 02:24:07;;;;;;;15.52;8.82;;;;;;;7.43;100.00;100963.25;8195127;28;20038;-83
2021/12/14 02:28:11;;;;;;;14.07;8.18;;;;;;;7.47;100.00;100967.28;8197530;28;20071;-83
2021/12/14 02:32:15;;;;;;;15.10;8.48;;;;;;;7.49;100.00;100959.69;8205045;28;20039;-83
2021/12/14 02:36:25;;;;;;;15.88;8.18;;;;;;;7.49;100.00;100966.03;8184704;28;20035;-81
2021/12/14 02:41:10;;;;;;;16.05;8.77;;;;;;;7.50;100.00;100951.28;8200590;28;20047;-83
2021/12/14 02:45:09;;;;;;;13.95;7.70;;;;;;;7.50;100.00;100945.78;8203724;28;20051;-82
2021/12/14 02:49:15;;;;;;;17.38;8.93;;;;;;;7.51;100.00;100954.88;8221235;28;20070;-82
2021/12/14 02:53:15;;;;;;;17.52;9.82;;;;;;;7.53;100.00;100939.91;8219622;28;20123;-82
2021/12/14 02:57:26;;;;;;;18.63;9.35;;;;;;;7.52;100.00;100942.84;8215345;28;20051;-82
2021/12/14 03:01:28;;;;;;;17.10;9.57;;;;;;;7.51;100.00;100942.00;8212840;28;20039;-81
2021/12/14 03:05:36;;;;;;;17.02;9.15;;;;;;;7.50;100.00;100928.50;8196112;28;20150;-83
2021/12/14 03:09:56;;;;;;;16.92;9.20;;;;;;;7.48;100.00;100920.47;8166831;28;20043;-82
2021/12/14 03:13:57;;;;;;;18.58;10.07;;;;;;;7.48;100.00;100914.97;8197939;28;20066;-82
2021/12/14 03:18:03;;;;;;;14.98;9.38;;;;;;;7.47;100.00;100923.41;8191877;28;20130;-83
2021/12/14 03:22:19;;;;;;;17.60;9.48;;;;;;;7.46;100.00;100921.72;8181271;28;20036;-83
2021/12/14 03:26:25;;;;;;;19.02;10.15;;;;;;;7.42;100.00;100914.94;8192222;28;20136;-83
2021/12/14 03:30:26;;;;;;;18.35;9.65;;;;;;;7.45;100.00;100915.38;8208007;28;20039;-83
2021/12/14 03:34:34;;;;;;;20.67;10.52;;;;;;;7.45;100.00;100917.28;8205207;28;20047;-83
2021/12/14 03:38:48;;;;;;;20.63;10.93;;;;;;;7.47;100.00;100917.94;8187892;28;20074;-83
2021/12/14 03:42:48;;;;;;;;;;;;;;;7.45;100.00;100915.38;8191289;28;20043;-83
2021/12/14 03:46:58;;;;;;;23.55;12.55;;;;;;;7.38;100.00;100900.78;8180063;28;19922;-84
2021/12/14 03:51:01;;;;;;;22.20;11.48;;;;;;;7.36;100.00;100893.81;8210643;28;20389;-83
2021/12/14 03:55:08;;;;;;;24.27;12.40;;;;;;;7.37;100.00;100900.97;8205074;28;20110;-83
2021/12/14 03:59:09;;;;;;;20.63;11.10;;;;;;;7.35;100.00;100900.31;8203701;28;20491;-82
2021/12/14 04:03:14;;;;;;;19.23;11.27;;;;;;;7.39;100.00;100887.94;8187058;28;20039;-83
2021/12/14 04:07:29;;;;;;;26.00;13.65;;;;;;;7.39;100.00;100898.91;8193477;28;20534;-83
2021/12/14 04:11:42;;;;;;;25.42;12.75;;;;;;;7.40;100.00;100900.56;8191582;28;20118;-82
2021/12/14 04:15:43;;;;;;;23.60;13.25;;;;;;;7.35;100.00;100898.47;8193684;28;20055;-81
2021/12/14 04:19:44;;;;;;;23.58;12.73;;;;;;;7.39;100.00;100887.94;8179869;28;20606;-81
2021/12/14 04:23:49;;;;;;;23.15;13.45;;;;;;;7.39;100.00;100882.44;8174287;28;20050;-82
2021/12/14 04:27:54;;;;;;;26.55;14.10;;;;;;;7.41;100.00;100866.66;8166473;28;20050;-81
2021/12/14 04:31:55;;;;;;;30.42;14.85;;;;;;;7.31;100.00;100865.09;8186879;28;20047;-80
2021/12/14 04:35:57;;;;;;;27.02;14.07;;;;;;;7.30;100.00;100882.59;8185178;28;20047;-80
2021/12/14 04:40:17;;;;;;;31.98;16.05;;;;;;;7.29;100.00;100888.31;8188789;28;20070;-81
2021/12/14 04:53:10;;;;;;;35.05;18.25;;;;;;;7.16;100.00;100845.19;8203282;28;20043;-82
2021/12/14 04:57:31;;;;;;;37.47;20.75;;;;;;;7.15;100.00;100837.19;8179393;28;20058;-80
2021/12/14 05:01:35;;;;;;;34.30;19.15;;;;;;;7.11;100.00;100823.03;8188266;28;20378;-81
2021/12/14 05:05:45;;;;;;;31.67;18.95;;;;;;;7.02;100.00;100811.41;8182634;28;20063;-80
2021/12/14 05:09:47;;;;;;;32.90;19.17;;;;;;;7.08;100.00;100801.53;8184176;28;20043;-81
2021/12/14 05:13:59;;;;;;;33.65;19.02;;;;;;;7.04;100.00;100798.31;8179393;28;20047;-81
2021/12/14 05:18:15;;;;;;;30.05;17.55;;;;;;;7.03;100.00;100798.53;8178518;28;20046;-81
2021/12/14 05:22:23;;;;;;;31.17;18.75;;;;;;;7.00;100.00;100796.19;8180622;28;20070;-81
2021/12/14 05:26:25;;;;;;;29.08;16.48;;;;;;;7.00;100.00;100801.69;8186781;28;20068;-82
2021/12/14 05:30:31;;;;;;;26.17;16.08;;;;;;;7.03;100.00;100791.16;8184036;28;20039;-80
2021/12/14 05:34:49;;;;;;;28.65;15.45;;;;;;;7.01;100.00;100786.91;8208611;28;20118;-81
2021/12/14 05:38:59;;;;;;;32.28;16.52;;;;;;;7.00;100.00;100791.56;8181586;28;20147;-82
2021/12/14 05:43:28;;;;;;;29.15;14.75;;;;;;;6.98;100.00;100801.88;8195906;28;20039;-82
2021/12/14 05:47:56;;;;;;;26.33;14.25;;;;;;;6.98;100.00;100804.59;8189112;28;20043;-80
2021/12/14 05:52:17;;;;;;;29.02;16.52;;;;;;;7.05;100.00;100807.41;8185005;28;20047;-82
2021/12/14 05:56:21;;;;;;;35.13;18.90;;;;;;;7.04;100.00;100808.44;8182687;28;20043;-82
2021/12/14 06:00:23;;;;;;;34.50;20.02;;;;;;;7.02;100.00;100805.03;8198086;28;20043;-82
2021/12/14 06:04:40;;;;;;;31.77;18.17;;;;;;;6.93;100.00;100812.63;8187355;28;20039;-82
2021/12/14 06:08:41;;;;;;;34.85;18.70;;;;;;;6.91;100.00;100789.19;8195597;28;20053;-82
2021/12/14 06:12:55;;;;;;;38.72;19.20;;;;;;;6.90;100.00;100839.53;8212623;28;20070;-79
2021/12/14 06:17:01;;;;;;;38.97;20.35;;;;;;;6.85;100.00;100842.91;8198595;28;20054;-80
2021/12/14 06:21:01;;;;;;;40.72;21.15;;;;;;;6.79;100.00;100836.31;8181151;28;20035;-80
2021/12/14 06:25:12;;;;;;;45.40;21.70;;;;;;;6.80;100.00;100853.59;8186580;28;20111;-80
2021/12/14 06:29:18;;;;;;;43.35;22.83;;;;;;;6.78;100.00;100863.91;8174236;28;20039;-79
2021/12/14 06:33:18;;;;;;;47.03;21.30;;;;;;;6.80;100.00;100862.66;8176467;28;20646;-80
2021/12/14 06:41:37;;;;;;;46.75;22.35;;;;;;;6.65;100.00;100874.78;8190233;28;20082;-82
2021/12/14 06:45:55;;;;;;;45.40;22.90;;;;;;;6.59;100.00;100873.66;8204636;28;20043;-82
2021/12/14 06:49:59;;;;;;;42.70;21.17;;;;;;;6.57;100.00;100879.34;8191222;28;20039;-83
2021/12/14 06:54:07;;;;;;;42.20;22.20;;;;;;;6.52;100.00;100872.78;8180389;28;20110;-81
2021/12/14 06:58:30;;;;;;;46.42;22.13;;;;;;;6.57;100.00;100887.56;8202033;28;20519;-82
2021/12/14 07:02:30;;;;;;;48.17;22.90;;;;;;;6.61;100.00;100899.81;8168233;28;20043;-81
2021/12/14 07:06:51;;;;;;;45.22;22.58;;;;;;;6.61;100.00;100902.56;8200069;28;20039;-80
2021/12/14 07:10:53;;;;;;;45.20;21.92;;;;;;;6.60;100.00;100906.34;8186075;28;20627;-82
2021/12/14 07:14:53;;;;;;;40.75;21.13;;;;;;;6.64;100.00;100916.91;8202042;28;20047;-81
2021/12/14 07:18:55;;;;;;;45.75;21.63;;;;;;;6.58;100.00;100913.91;8178453;28;20069;-81
2021/12/14 07:22:57;;;;;;;42.47;22.63;;;;;;;6.55;100.00;100918.94;8192670;28;20050;-79
2021/12/14 07:27:20;;;;;;;38.55;21.38;;;;;;;6.52;100.00;100916.59;8203185;28;20058;-81
2021/12/14 07:31:23;;;;;;;43.50;22.30;;;;;;;6.49;100.00;100897.81;8201825;28;20051;-80
2021/12/14 07:35:32;;;;;;;42.42;22.98;;;;;;;6.48;100.00;100907.91;8196268;28;20051;-80
2021/12/14 07:39:34;;;;;;;46.45;22.02;;;;;;;6.52;100.00;100897.41;8186029;28;20436;-81
2021/12/14 07:44:02;;;;;;;40.50;21.83;;;;;;;6.54;100.00;100896.19;8195872;28;20071;-79
2021/12/14 07:48:04;;;;;;;41.55;22.45;;;;;;;6.53;100.00;100889.00;8186883;28;20102;-81
2021/12/14 07:52:14;;;;;;;47.30;23.75;;;;;;;6.47;100.00;100900.72;8199213;28;20044;-79
2021/12/14 07:56:29;;;;;;;48.70;22.42;;;;;;;6.51;100.00;100901.19;8201380;28;20043;-80
2021/12/14 08:00:35;;;;;;;60.65;24.50;;;;;;;6.56;100.00;100915.13;8196729;28;20062;-79
2021/12/14 08:04:38;;;;;;;45.05;23.15;;;;;;;6.57;100.00;100911.34;8197462;28;20501;-80
2021/12/14 08:08:44;;;;;;;81.55;26.08;;;;;;;6.60;100.00;100900.00;8181025;28;20046;-80
2021/12/14 08:12:50;;;;;;;45.55;23.25;;;;;;;6.53;100.00;100899.94;8194642;28;20043;-81
2021/12/14 08:17:07;;;;;;;41.03;22.02;;;;;;;6.56;100.00;100901.44;8176445;28;20054;-79
2021/12/14 08:21:17;;;;;;;46.30;21.88;;;;;;;6.54;100.00;100895.31;8197287;28;20043;-80
2021/12/14 08:25:27;;;;;;;48.00;23.20;;;;;;;6.65;100.00;100897.53;8189292;28;20134;-79
2021/12/14 08:29:31;;;;;;;42.03;22.17;;;;;;;6.72;100.00;100909.41;8188334;28;20043;-80
2021/12/14 08:33:32;;;;;;;73.18;28.67;;;;;;;6.74;100.00;100901.81;8186107;28;20079;-79
2021/12/14 08:37:38;;;;;;;56.17;25.83;;;;;;;6.67;100.00;100906.41;8197179;28;20043;-80
2021/12/14 08:41:48;;;;;;;50.70;25.88;;;;;;;6.70;100.00;100900.53;8194070;28;20039;-81
2021/12/14 08:45:59;;;;;;;44.08;23.33;;;;;;;6.74;100.00;100914.66;8196923;28;20039;-81
2021/12/14 08:50:05;;;;;;;46.10;24.27;;;;;;;6.74;100.00;100920.16;8191777;28;20062;-81
2021/12/14 08:54:08;;;;;;;45.65;23.50;;;;;;;6.68;100.00;100934.63;8190634;28;20460;-79
2021/12/14 08:58:10;;;;;;;47.38;24.17;;;;;;;6.56;100.00;100940.63;8194232;28;20063;-80
2021/12/14 09:02:14;;;;;;;45.00;23.45;;;;;;;6.56;100.00;100937.88;8178522;28;20058;-80
2021/12/14 09:06:19;;;;;;;43.58;22.08;;;;;;;6.55;100.00;100943.59;8172360;28;20107;-81
2021/12/14 09:10:26;;;;;;;47.15;23.17;;;;;;;6.65;100.00;100944.09;8182277;28;20497;-78
2021/12/14 09:14:28;;;;;;;44.80;22.52;;;;;;;6.65;100.00;100946.81;8185664;28;20465;-79
2021/12/14 09:18:35;;;;;;;46.00;21.98;;;;;;;6.64;100.00;100945.13;8199034;28;20070;-80
2021/12/14 09:22:41;;;;;;;44.95;23.15;;;;;;;6.63;100.00;100943.41;8200109;28;20043;-81
2021/12/14 09:26:45;;;;;;;47.83;22.65;;;;;;;6.62;100.00;100941.75;8194808;28;20051;-80
2021/12/14 09:30:51;;;;;;;45.75;21.23;;;;;;;6.67;100.00;100944.75;8184611;28;20511;-81
2021/12/14 09:34:52;;;;;;;40.53;19.30;;;;;;;6.62;100.00;100948.06;8187461;28;20043;-79
2021/12/14 09:38:57;;;;;;;39.90;20.45;;;;;;;6.57;100.00;100958.78;8177354;28;20051;-78
2021/12/14 09:42:58;;;;;;;41.40;19.75;;;;;;;6.56;100.00;100957.06;8194346;28;20133;-80
2021/12/14 09:47:02;;;;;;;42.63;19.88;;;;;;;6.60;100.00;100965.72;8189390;28;20047;-80
2021/12/14 09:51:07;;;;;;;43.00;20.88;;;;;;;6.62;100.00;100963.66;8175676;28;20047;-80
2021/12/14 09:55:13;;;;;;;43.55;20.80;;;;;;;6.68;100.00;100965.59;8197870;28;20086;-79
2021/12/14 09:59:16;;;;;;;47.15;20.73;;;;;;;6.67;100.00;100957.59;8196305;28;20036;-79
2021/12/14 10:03:17;;;;;;;44.78;19.92;;;;;;;6.81;100.00;100965.75;8199724;28;20063;-81
2021/12/14 10:07:19;;;;;;;48.03;22.50;;;;;;;6.91;100.00;100956.34;8196411;28;20606;-80
2021/12/14 10:11:27;;;;;;;48.50;21.92;;;;;;;6.93;100.00;100949.63;8192302;28;20142;-81
2021/12/14 10:15:38;;;;;;;54.05;22.70;;;;;;;6.97;100.00;100950.91;8182792;28;20054;-81
2021/12/14 10:19:43;;;;;;;54.28;23.55;;;;;;;7.06;100.00;100948.88;8208793;28;20050;-80
2021/12/14 10:23:45;;;;;;;48.55;21.83;;;;;;;7.03;100.00;100960.22;8189776;28;20043;-80
2021/12/14 10:27:47;;;;;;;57.25;23.40;;;;;;;7.00;100.00;100974.31;8185159;28;20058;-81
2021/12/14 10:31:59;;;;;;;58.78;24.63;;;;;;;6.99;100.00;100961.66;8176691;28;20063;-81
2021/12/14 10:36:14;;;;;;;57.45;22.90;;;;;;;7.02;100.00;100958.50;8178240;28;20415;-81
2021/12/14 10:44:40;;;;;;;58.08;22.92;;;;;;;7.00;100.00;100952.41;8202719;28;20074;-81
2021/12/14 10:48:44;;;;;;;59.38;23.25;;;;;;;7.07;100.00;100945.91;8193046;28;20043;-81
2021/12/14 10:52:45;;;;;;;59.90;22.65;;;;;;;7.16;100.00;100954.00;8191853;28;20050;-81
2021/12/14 10:56:51;;;;;;;54.03;22.13;;;;;;;7.10;100.00;100954.78;8187074;28;20503;-82
2021/12/14 11:00:57;;;;;;;55.72;23.13;;;;;;;6.97;100.00;100953.66;8186251;28;20116;-81
2021/12/14 11:04:59;;;;;;;53.03;22.67;;;;;;;7.03;100.00;100955.59;8187171;28;20103;-81
2021/12/14 11:09:40;;;;;;;56.85;22.75;;;;;;;6.98;100.00;100957.22;8208277;28;20559;-81
2021/12/14 11:13:38;;;;;;;51.25;21.80;;;;;;;6.89;100.00;100956.53;8208827;28;20054;-81
2021/12/14 11:22:17;;;;;;;46.70;19.70;;;;;;;6.89;100.00;100944.72;8212713;28;20200;-81
2021/12/14 11:26:27;;;;;;;50.53;21.48;;;;;;;6.95;100.00;100946.66;8174106;28;20043;-81
2021/12/14 11:30:35;;;;;;;58.47;22.15;;;;;;;6.96;100.00;100942.88;8203029;28;20039;-81
2021/12/14 11:34:39;;;;;;;51.10;21.45;;;;;;;6.96;100.00;100945.59;8202175;28;20396;-81
2021/12/14 11:38:42;;;;;;;54.33;21.77;;;;;;;6.95;100.00;100935.69;8200014;28;20054;-81
2021/12/14 11:42:46;;;;;;;52.88;21.27;;;;;;;7.01;100.00;100935.75;8204095;28;20119;-81
2021/12/14 11:46:56;;;;;;;57.92;22.10;;;;;;;6.96;100.00;100935.53;8181414;28;20039;-81
2021/12/14 11:50:59;;;;;;;56.53;22.45;;;;;;;6.99;100.00;100926.91;8202119;28;20051;-82
2021/12/14 11:55:13;;;;;;;55.47;23.45;;;;;;;6.92;100.00;100925.13;8211524;28;20054;-82
2021/12/14 11:59:16;;;;;;;59.33;22.73;;;;;;;6.91;100.00;100924.28;8204360;28;20051;-79
2021/12/14 12:03:52;;;;;;;58.28;22.98;;;;;;;7.01;100.00;100921.19;8224469;28;20143;-81
2021/12/14 12:12:14;;;;;;;55.97;22.52;;;;;;;7.03;100.00;100919.97;8195935;28;20053;-81
2021/12/14 12:16:23;;;;;;;49.55;21.15;;;;;;;7.12;100.00;100920.66;8214511;28;20062;-81
2021/12/14 12:20:31;;;;;;;57.67;23.92;;;;;;;7.18;100.00;100919.00;8213515;28;20059;-81
2021/12/14 12:24:46;;;;;;;52.22;22.65;;;;;;;7.09;100.00;100921.06;8194456;28;20124;-81
2021/12/14 12:28:47;;;;;;;52.92;20.88;;;;;;;7.13;100.00;100916.00;8199423;28;20071;-81
2021/12/14 12:32:49;;;;;;;48.20;21.27;;;;;;;7.11;100.00;100912.63;8190232;28;20501;-82
2021/12/14 12:36:49;;;;;;;52.85;21.90;;;;;;;7.15;100.00;100908.44;8196908;28;20111;-81
2021/12/14 12:40:56;;;;;;;102.00;28.25;;;;;;;7.22;100.00;100909.31;8192548;28;20055;-82
2021/12/14 12:44:56;;;;;;;95.72;25.38;;;;;;;7.23;100.00;100911.88;8213734;28;20066;-82
2021/12/14 12:49:08;;;;;;;75.30;23.35;;;;;;;7.27;100.00;100904.09;8184792;28;20059;-81
2021/12/14 12:53:21;;;;;;;54.42;21.00;;;;;;;7.28;100.00;100890.16;8196466;28;20050;-81
2021/12/14 12:57:33;;;;;;;57.47;20.65;;;;;;;7.19;100.00;100894.13;8222761;28;20094;-80
2021/12/14 13:01:35;;;;;;;57.53;23.47;;;;;;;7.15;100.00;100906.56;8225385;28;20102;-80
2021/12/14 13:05:43;;;;;;;59.65;22.80;;;;;;;7.12;100.00;100904.22;8216744;28;20136;-80
2021/12/14 13:10:01;;;;;;;60.10;22.63;;;;;;;7.08;100.00;100908.41;8223666;28;20477;-81
2021/12/14 13:14:07;;;;;;;61.33;23.55;;;;;;;6.98;100.00;100908.75;8185955;28;20055;-80
2021/12/14 13:18:21;;;;;;;50.88;21.27;;;;;;;7.00;100.00;100909.41;8180757;28;20063;-80
2021/12/14 13:22:23;;;;;;;56.30;22.58;;;;;;;6.99;100.00;100917.81;8181862;28;20500;-81
2021/12/14 13:26:44;;;;;;;56.67;21.30;;;;;;;6.91;100.00;100913.34;8174840;28;20126;-81
2021/12/14 13:30:54;;;;;;;61.25;22.58;;;;;;;6.95;100.00;100919.25;8174192;28;20117;-81
2021/12/14 13:35:10;;;;;;;52.40;23.42;;;;;;;6.95;100.00;100930.22;8191242;28;20043;-81
2021/12/14 13:39:12;;;;;;;62.63;23.65;;;;;;;6.90;100.00;100924.47;8172397;28;20050;-81
2021/12/14 13:43:16;;;;;;;57.80;23.48;;;;;;;6.87;100.00;100922.13;8183398;28;20484;-80
2021/12/14 13:47:22;;;;;;;60.58;22.95;;;;;;;6.84;100.00;100931.59;8187574;28;20043;-80
2021/12/14 13:51:26;;;;;;;58.97;22.45;;;;;;;6.79;100.00;100934.94;8201049;28;20101;-81
2021/12/14 13:55:30;;;;;;;62.72;22.15;;;;;;;6.75;100.00;100932.78;8205315;28;20051;-80
2021/12/14 13:59:31;;;;;;;55.65;23.30;;;;;;;6.70;100.00;100938.03;8199233;28;20054;-81
2021/12/14 14:03:41;;;;;;;63.53;21.10;;;;;;;6.75;100.00;100946.47;8200672;28;20054;-81
2021/12/14 14:07:43;;;;;;;56.80;22.58;;;;;;;6.74;100.00;100951.13;8202852;28;20094;-81
2021/12/14 14:12:09;;;;;;;61.08;23.33;;;;;;;6.57;100.00;100957.91;8191350;28;20065;-79
2021/12/14 14:16:10;;;;;;;63.47;24.63;;;;;;;6.46;100.00;100962.03;8205804;28;20054;-80
2021/12/14 14:20:19;;;;;;;59.33;21.85;;;;;;;6.52;100.00;100968.63;8210807;28;20035;-81
2021/12/14 14:24:30;;;;;;;53.60;21.85;;;;;;;6.49;100.00;100977.22;8199840;28;20053;-82
2021/12/14 14:28:40;;;;;;;61.13;22.23;;;;;;;6.46;100.00;100985.81;8208693;28;20412;-81
2021/12/14 14:33:09;;;;;;;58.22;21.23;;;;;;;6.54;100.00;100972.88;8192408;28;20052;-80
2021/12/14 14:37:14;;;;;;;80.05;25.83;;;;;;;6.57;100.00;100994.38;8202072;28;20043;-82
2021/12/14 14:41:14;;;;;;;72.10;24.63;;;;;;;6.52;100.00;101002.31;8173691;28;20082;-80
2021/12/14 14:45:24;;;;;;;65.50;22.65;;;;;;;6.51;100.00;100997.03;8179830;28;20082;-80
2021/12/14 14:49:36;;;;;;;61.03;21.92;;;;;;;6.56;100.00;101000.03;8203761;28;20057;-81
2021/12/14 14:53:40;;;;;;;70.50;25.65;;;;;;;6.45;100.00;100995.91;8181274;28;20055;-81
2021/12/14 14:57:59;;;;;;;61.90;22.60;;;;;;;6.50;100.00;101001.66;8175215;28;20118;-80
2021/12/14 15:02:00;;;;;;;57.42;23.13;;;;;;;6.59;100.00;101002.38;8205161;28;20050;-81
2021/12/14 15:06:10;;;;;;;56.47;20.73;;;;;;;6.59;100.00;101002.38;8203213;28;20039;-80
2021/12/14 15:10:14;;;;;;;62.30;22.85;;;;;;;6.57;100.00;101008.06;8195825;28;20039;-81
2021/12/14 15:14:37;;;;;;;60.47;23.88;;;;;;;6.56;100.00;101008.25;8194481;28;20042;-81
2021/12/14 15:18:43;;;;;;;;;;;;;;;6.50;100.00;101009.03;8192130;28;20615;-81
2021/12/14 15:23:03;;;;;;;51.88;19.75;;;;;;;6.52;100.00;101020.66;8183870;28;19949;-80
2021/12/14 15:27:10;;;;;;;54.40;21.35;;;;;;;6.48;100.00;101014.69;8200244;28;20075;-81
2021/12/14 15:31:15;;;;;;;53.47;20.83;;;;;;;6.44;100.00;101016.13;8206547;28;20046;-82
2021/12/14 15:35:27;;;;;;;54.95;21.48;;;;;;;6.46;100.00;101024.16;8190987;28;20062;-81
2021/12/14 15:39:37;;;;;;;45.40;18.23;;;;;;;6.54;100.00;101033.09;8192193;28;20049;-80
2021/12/14 15:43:44;;;;;;;50.85;20.40;;;;;;;6.55;100.00;101039.44;8203756;28;20082;-81
2021/12/14 15:48:08;;;;;;;52.70;20.08;;;;;;;6.52;100.00;101042.56;8200433;28;20043;-81
2021/12/14 15:52:20;;;;;;;43.85;17.30;;;;;;;6.58;100.00;101041.78;8180067;28;20043;-81
2021/12/14 15:56:36;;;;;;;48.53;17.50;;;;;;;6.61;100.00;101052.34;8200292;28;20045;-81
2021/12/14 16:00:39;;;;;;;45.25;17.92;;;;;;;6.65;100.00;101061.88;8214390;28;20043;-81
2021/12/14 16:04:43;;;;;;;44.67;18.20;;;;;;;6.66;100.00;101071.75;8193860;28;20501;-82
2021/12/14 16:08:44;;;;;;;54.58;19.40;;;;;;;6.67;100.00;101054.31;8203969;28;20078;-81
2021/12/14 16:17:16;;;;;;;114.13;43.33;;;;;;;6.67;100.00;101068.00;8212130;28;20062;-80
2021/12/14 16:21:17;;;;;;;67.90;26.70;;;;;;;6.65;100.00;101074.72;8206032;28;20049;-81
2021/12/14 16:25:25;;;;;;;70.70;27.35;;;;;;;6.67;100.00;101076.22;8188803;28;20070;-81
2021/12/14 16:29:33;;;;;;;50.90;19.42;;;;;;;6.71;100.00;101082.16;8205452;28;20038;-81
2021/12/14 16:34:06;;;;;;;54.20;21.30;;;;;;;6.70;100.00;101088.69;8192236;28;20428;-80
2021/12/14 16:38:10;;;;;;;48.20;18.20;;;;;;;6.68;100.00;101088.88;8188313;28;20051;-80
2021/12/14 16:42:17;;;;;;;39.70;18.75;;;;;;;6.69;100.00;101084.22;8208982;28;20047;-81
2021/12/14 16:46:42;;;;;;;44.33;18.80;;;;;;;6.71;100.00;101091.22;8169118;28;20047;-80
2021/12/14 16:50:46;;;;;;;48.10;18.75;;;;;;;6.70;100.00;101091.44;8203572;28;20067;-81
2021/12/14 16:54:52;;;;;;;43.25;16.73;;;;;;;6.71;100.00;101090.38;8210329;28;20067;-80
2021/12/14 16:59:09;;;;;;;41.95;17.08;;;;;;;6.62;100.00;101089.63;8208489;28;20043;-80
2021/12/14 17:03:10;;;;;;;38.28;16.70;;;;;;;6.54;100.00;101087.88;8205554;28;20049;-81
2021/12/14 17:07:15;;;;;;;37.08;15.82;;;;;;;6.52;100.00;101095.44;8189573;28;20048;-81
2021/12/14 17:11:19;;;;;;;35.42;16.67;;;;;;;6.50;100.00;101092.03;8195614;28;20034;-81
2021/12/14 17:15:33;;;;;;;32.53;15.10;;;;;;;6.52;100.00;101091.84;8190150;28;20040;-81
2021/12/14 17:19:37;;;;;;;32.33;15.48;;;;;;;6.43;100.00;101088.38;8199705;28;20039;-81
2021/12/14 17:23:41;;;;;;;29.63;14.90;;;;;;;6.47;100.00;101094.31;8186650;28;20554;-80
2021/12/14 17:27:44;;;;;;;29.55;13.85;;;;;;;6.49;100.00;101101.28;8204771;28;20054;-81
2021/12/14 17:31:49;;;;;;;29.80;14.02;;;;;;;6.45;100.00;101112.81;8190817;28;20043;-80
2021/12/14 17:35:49;;;;;;;32.40;13.65;;;;;;;6.37;100.00;101106.41;8194347;28;20047;-80
2021/12/14 17:39:59;;;;;;;28.77;12.30;;;;;;;6.39;100.00;101109.81;8185677;28;20043;-80
2021/12/14 17:44:22;;;;;;;28.23;12.93;;;;;;;6.45;100.00;101115.53;8188565;28;20039;-81
2021/12/14 17:48:28;;;;;;;27.08;13.13;;;;;;;6.36;100.00;101118.38;8185670;28;20051;-80
2021/12/14 17:52:33;;;;;;;29.50;14.05;;;;;;;6.41;100.00;101127.94;8187097;28;20047;-80
2021/12/14 17:56:34;;;;;;;28.88;13.02;;;;;;;6.46;100.00;101130.94;8183607;28;20098;-80
2021/12/14 18:00:50;;;;;;;31.70;14.10;;;;;;;6.40;100.00;101140.78;8201423;28;20043;-80
2021/12/14 18:04:51;;;;;;;27.48;12.57;;;;;;;6.44;100.00;101146.72;8197529;28;20428;-80
2021/12/14 18:09:04;;;;;;;35.45;14.70;;;;;;;6.45;100.00;101142.91;8205310;28;20047;-80
2021/12/14 18:13:10;;;;;;;26.05;12.70;;;;;;;6.47;100.00;101129.91;8197997;28;20039;-79
2021/12/14 18:17:20;;;;;;;26.85;13.82;;;;;;;6.44;100.00;101125.66;8199967;28;20062;-80
2021/12/14 18:21:24;;;;;;;32.67;13.50;;;;;;;6.45;100.00;101130.06;8189740;28;20115;-79
2021/12/14 18:25:25;;;;;;;30.52;14.82;;;;;;;6.43;100.00;101129.44;8192481;28;20046;-79
2021/12/14 18:29:41;;;;;;;26.80;13.87;;;;;;;6.49;100.00;101128.66;8182974;28;20078;-80
2021/12/14 18:33:43;;;;;;;26.70;13.45;;;;;;;6.54;100.00;101137.19;8201672;28;20078;-79
2021/12/14 18:37:50;;;;;;;29.30;13.67;;;;;;;6.57;100.00;101134.06;8207590;28;20070;-79
2021/12/14 18:42:06;;;;;;;26.08;14.50;;;;;;;6.57;100.00;101130.44;8210402;28;20508;-79
2021/12/14 18:46:18;;;;;;;29.77;13.35;;;;;;;6.57;100.00;101124.97;8215623;28;20047;-80
2021/12/14 18:50:32;;;;;;;26.73;14.57;;;;;;;6.61;100.00;101121.66;8215040;28;20058;-80
2021/12/14 18:54:33;;;;;;;27.58;14.68;;;;;;;6.57;100.00;101116.75;8208214;28;20153;-80
2021/12/14 18:58:49;;;;;;;32.33;14.43;;;;;;;6.56;100.00;101120.53;8193341;28;20105;-81
2021/12/14 19:02:49;;;;;;;33.10;13.90;;;;;;;6.55;100.00;101122.44;8205986;28;20081;-81
2021/12/14 19:06:53;;;;;;;35.28;15.45;;;;;;;6.51;100.00;101131.19;8189362;28;20078;-80
2021/12/14 19:11:16;;;;;;;35.40;16.25;;;;;;;6.45;100.00;101132.81;8211767;28;20130;-80
2021/12/14 19:15:29;;;;;;;32.80;15.38;;;;;;;6.49;100.00;101147.84;8182381;28;20057;-81
2021/12/14 19:19:34;;;;;;;31.80;15.27;;;;;;;6.54;100.00;101150.00;8185383;28;20442;-80
2021/12/14 19:23:37;;;;;;;33.70;15.70;;;;;;;6.51;100.00;101153.97;8199588;28;20043;-80
2021/12/14 19:27:38;;;;;;;31.15;15.55;;;;;;;6.48;100.00;101143.38;8190911;28;20058;-80
2021/12/14 19:31:46;;;;;;;32.30;16.95;;;;;;;6.50;100.00;101141.31;8196045;28;20047;-79
2021/12/14 19:35:47;;;;;;;29.00;14.93;;;;;;;6.51;100.00;101136.69;8199340;28;20036;-79